Time;durP1;ratioP1;P1;durP2;ratioP2;P2;SDS_P1;SDS_P2;PMS_P1;PMS_P2;Temp;Humidity;BMP_temperature;BMP_pressure;BME280_temperature;BME280_humidity;BME280_pressure;Samples;Min_cycle;Max_cycle;Signal;HPM_P1;HPM_P2
2023/09/08 00:02:25;;;;;;;6.32;4.75;;;;;;;-145.69;52.74;51846.34;5133841;27;20189;-82
2023/09/08 00:04:51;;;;;;;9.20;5.30;;;;;;;-145.69;52.59;51858.22;5134380;27;20253;-82
2023/09/08 00:07:22;;;;;;;9.35;5.32;;;;;;;-145.69;52.72;51850.31;5134356;27;20200;-82
2023/09/08 00:09:51;;;;;;;12.80;4.93;;;;;;;-145.69;52.53;51842.38;5134092;27;20389;-82
2023/09/08 00:12:18;;;;;;;10.43;4.95;;;;;;;-145.69;52.11;51834.47;5134442;27;20203;-82
2023/09/08 00:14:47;;;;;;;9.32;5.35;;;;;;;-145.69;52.24;51870.13;5133879;27;20206;-83
2023/09/08 00:17:15;;;;;;;8.27;4.95;;;;;;;-145.69;51.72;51842.38;5134106;27;20220;-83
2023/09/08 00:19:42;;;;;;;8.98;4.88;;;;;;;-145.69;52.28;51866.16;5134164;27;20279;-82
2023/09/08 00:22:13;;;;;;;8.23;5.05;;;;;;;-145.69;51.61;51842.38;5134070;27;20567;-82
2023/09/08 00:24:40;;;;;;;8.27;5.28;;;;;;;-145.69;52.08;51882.00;5134587;27;20192;-82
2023/09/08 00:27:09;;;;;;;7.63;4.95;;;;;;;-145.69;52.44;51878.03;5132388;27;20287;-82
2023/09/08 00:29:35;;;;;;;11.23;5.50;;;;;;;-145.69;52.52;51876.06;5134029;27;20192;-83
2023/09/08 00:32:07;;;;;;;8.15;5.35;;;;;;;-145.69;52.67;51854.28;5133685;27;20208;-83
2023/09/08 00:34:37;;;;;;;10.73;5.28;;;;;;;-145.69;52.25;51854.28;5133947;27;20201;-83
2023/09/08 00:37:07;;;;;;;10.07;4.93;;;;;;;-145.69;52.53;51832.50;5133894;27;20224;-82
2023/09/08 00:39:35;;;;;;;10.80;5.22;;;;;;;-145.69;52.08;51858.22;5134154;27;20257;-82
2023/09/08 00:42:04;;;;;;;10.18;5.10;;;;;;;-145.69;52.97;51864.16;5131535;27;20205;-82
2023/09/08 00:44:30;;;;;;;7.35;4.57;;;;;;;-145.69;53.50;51872.09;5134046;27;20200;-83
2023/09/08 00:46:57;;;;;;;8.43;5.00;;;;;;;-145.69;53.38;51870.13;5133582;27;20201;-82
2023/09/08 00:49:27;;;;;;;10.15;5.18;;;;;;;-145.69;53.73;51854.28;5133759;27;20630;-82
2023/09/08 00:51:55;;;;;;;6.90;4.97;;;;;;;-145.69;53.90;51858.22;5132224;27;20560;-82
2023/09/08 00:54:25;;;;;;;8.52;5.05;;;;;;;-145.69;53.81;51862.19;5133798;27;20647;-82
2023/09/08 00:56:57;;;;;;;10.45;5.35;;;;;;;-145.69;53.67;51838.44;5133512;27;20666;-82
2023/09/08 00:59:24;;;;;;;9.85;5.28;;;;;;;-145.69;54.27;51882.00;5133917;27;20201;-83
2023/09/08 01:01:54;;;;;;;8.18;5.28;;;;;;;-145.69;54.40;51854.28;5133753;28;20682;-83
2023/09/08 01:04:26;;;;;;;9.43;5.50;;;;;;;-145.69;54.23;51891.88;5130529;27;20246;-83
2023/09/08 01:06:52;;;;;;;11.25;5.25;;;;;;;-145.69;54.06;51858.22;5133081;28;20663;-82
2023/09/08 01:09:21;;;;;;;14.25;5.15;;;;;;;-145.69;54.25;51874.06;5133480;27;20199;-82
2023/09/08 01:11:48;;;;;;;8.13;5.45;;;;;;;-145.69;54.64;51854.28;5133376;28;20283;-82
2023/09/08 01:14:18;;;;;;;15.40;5.70;;;;;;;-145.69;54.39;51874.06;5132852;27;20199;-82
2023/09/08 01:16:45;;;;;;;8.93;5.47;;;;;;;-145.69;54.63;51866.16;5133549;28;20529;-83
2023/09/08 01:19:15;;;;;;;10.20;5.60;;;;;;;-145.69;54.76;51878.03;5133699;27;20564;-83
2023/09/08 01:21:59;;;;;;;10.57;5.65;;;;;;;-145.69;54.45;51878.03;5133946;27;20196;-82
2023/09/08 01:24:51;;;;;;;8.90;5.03;;;;;;;-145.69;53.99;51846.34;5126869;27;20366;-83
2023/09/08 01:27:20;;;;;;;13.07;6.25;;;;;;;-145.69;54.61;51866.16;5133212;27;20201;-83
2023/09/08 01:29:49;;;;;;;9.65;6.22;;;;;;;-145.69;54.31;51882.00;5133942;28;20193;-83
2023/09/08 01:32:18;;;;;;;9.20;5.45;;;;;;;-145.69;54.68;51858.22;5133097;28;20189;-81
2023/09/08 01:34:45;;;;;;;10.68;6.00;;;;;;;-145.69;54.33;51872.09;5133609;28;20234;-82
2023/09/08 01:37:13;;;;;;;8.07;5.68;;;;;;;-145.69;54.83;51842.38;5132896;27;20528;-83
2023/09/08 01:39:40;;;;;;;9.52;6.00;;;;;;;-145.69;54.56;51874.06;5132949;27;20193;-82
2023/09/08 01:42:07;;;;;;;9.40;5.20;;;;;;;-145.69;54.79;51842.38;5132763;27;20201;-82
2023/09/08 01:44:36;;;;;;;9.95;5.65;;;;;;;-145.69;54.63;51870.13;5133805;27;20197;-82
2023/09/08 01:47:02;;;;;;;7.95;5.72;;;;;;;-145.69;54.81;51870.13;5134990;27;20615;-82
2023/09/08 01:49:34;;;;;;;11.95;5.55;;;;;;;-145.69;55.30;51852.28;5135407;27;20651;-82
2023/09/08 01:52:03;;;;;;;9.48;5.63;;;;;;;-145.69;55.35;51878.03;5136774;27;20204;-83
2023/09/08 01:54:32;;;;;;;8.13;5.85;;;;;;;-145.69;55.16;51874.06;5137306;27;20289;-82
2023/09/08 01:56:58;;;;;;;12.55;5.75;;;;;;;-145.69;55.57;51882.00;5137241;27;20201;-83
2023/09/08 01:59:25;;;;;;;8.75;5.53;;;;;;;-145.69;56.01;51885.94;5137060;27;20229;-83
2023/09/08 02:01:53;;;;;;;16.35;5.93;;;;;;;-145.69;55.84;51880.00;5136560;27;20283;-82
2023/09/08 02:04:20;;;;;;;8.15;5.35;;;;;;;-145.69;56.01;51905.75;5136414;27;20192;-82
2023/09/08 02:06:46;;;;;;;7.32;5.35;;;;;;;-145.69;55.83;51882.00;5136893;27;20303;-82
2023/09/08 02:09:15;;;;;;;8.73;5.93;;;;;;;-145.69;55.84;51870.13;5135784;27;20287;-83
2023/09/08 02:11:42;;;;;;;7.68;5.25;;;;;;;-145.69;55.89;51868.13;5136555;27;20550;-82
2023/09/08 02:14:10;;;;;;;11.63;6.10;;;;;;;-145.69;56.19;51882.00;5136542;27;20196;-82
2023/09/08 02:16:39;;;;;;;12.00;5.78;;;;;;;-145.69;55.36;51889.91;5136368;27;20228;-82
2023/09/08 02:19:07;;;;;;;11.50;6.38;;;;;;;-145.69;54.95;51846.34;5136648;27;20774;-83
2023/09/08 02:21:37;;;;;;;9.90;5.97;;;;;;;-145.69;55.89;51887.94;5136515;27;20671;-82
2023/09/08 02:24:11;;;;;;;10.73;6.10;;;;;;;-145.69;55.64;51878.03;5136112;27;20201;-83
2023/09/08 02:26:38;;;;;;;9.20;6.38;;;;;;;-145.69;56.38;51878.03;5136800;27;20292;-84
2023/09/08 02:29:07;;;;;;;9.48;5.95;;;;;;;-145.69;56.16;51874.06;5136460;27;20211;-82
2023/09/08 02:31:36;;;;;;;12.18;6.15;;;;;;;-145.69;55.72;51864.16;5136340;27;20196;-82
2023/09/08 02:34:04;;;;;;;12.00;6.88;;;;;;;-145.69;56.37;51882.00;5132862;27;20201;-80
2023/09/08 02:36:34;;;;;;;10.38;6.35;;;;;;;-145.69;56.60;51874.06;5136159;27;20203;-81
2023/09/08 02:39:01;;;;;;;10.18;6.55;;;;;;;-145.69;56.53;51915.66;5135872;27;20575;-81
2023/09/08 02:41:27;;;;;;;8.32;5.78;;;;;;;-145.69;56.05;51887.94;5135771;27;20211;-82
2023/09/08 02:43:55;;;;;;;11.07;6.45;;;;;;;-145.69;56.50;51907.72;5135974;27;20264;-82
2023/09/08 02:46:38;;;;;;;13.00;6.88;;;;;;;-145.69;56.67;51866.16;5131223;27;20552;-82
2023/09/08 02:49:06;;;;;;;13.45;6.75;;;;;;;-145.69;56.86;51887.94;5130666;28;20185;-82
2023/09/08 02:51:33;;;;;;;9.88;6.53;;;;;;;-145.69;57.00;51891.88;5130912;28;20193;-82
2023/09/08 02:54:04;;;;;;;11.40;6.90;;;;;;;-145.69;57.27;51925.56;5130771;27;20207;-82
2023/09/08 02:56:32;;;;;;;9.65;6.13;;;;;;;-145.69;56.88;51883.97;5130794;27;20596;-82
2023/09/08 02:59:02;;;;;;;10.57;6.35;;;;;;;-145.69;57.20;51899.81;5130955;28;20204;-82
2023/09/08 03:01:32;;;;;;;9.57;6.82;;;;;;;-145.69;57.71;51907.72;5122602;27;20211;-83
2023/09/08 03:04:01;;;;;;;14.05;7.40;;;;;;;-145.69;58.32;51885.94;5130592;27;20643;-82
2023/09/08 03:06:27;;;;;;;11.55;7.57;;;;;;;-145.69;58.17;51895.84;5130330;28;20318;-82
2023/09/08 03:08:54;;;;;;;11.05;7.28;;;;;;;-145.69;58.68;51921.59;5130727;28;20207;-82
2023/09/08 03:11:21;;;;;;;14.63;6.97;;;;;;;-145.69;58.85;51862.19;5130706;27;20276;-82
2023/09/08 03:13:47;;;;;;;10.82;7.90;;;;;;;-145.69;58.09;51882.00;5130440;28;20533;-82
2023/09/08 03:16:14;;;;;;;10.70;7.57;;;;;;;-145.69;58.03;51874.06;5130363;27;20207;-82
2023/09/08 03:18:40;;;;;;;10.77;7.32;;;;;;;-145.69;58.45;51891.88;5130619;27;20197;-82
2023/09/08 03:21:11;;;;;;;11.73;7.30;;;;;;;-145.69;58.42;51883.97;5130348;27;20200;-82
2023/09/08 03:23:40;;;;;;;11.63;8.48;;;;;;;-145.69;60.02;51907.72;5129338;27;20770;-82
2023/09/08 03:26:07;;;;;;;10.50;7.75;;;;;;;-145.69;59.08;51878.03;5130433;28;20255;-82
2023/09/08 03:28:35;;;;;;;11.63;7.22;;;;;;;-145.69;58.88;51880.00;5129162;27;20213;-82
2023/09/08 03:31:02;;;;;;;14.77;7.93;;;;;;;-145.69;59.08;51907.72;5129721;28;20197;-82
2023/09/08 03:33:31;;;;;;;12.23;7.03;;;;;;;-145.69;59.24;51913.69;5130433;28;20402;-82
2023/09/08 03:35:58;;;;;;;13.00;7.50;;;;;;;-145.69;59.66;51901.78;5125409;27;20209;-83
2023/09/08 03:38:26;;;;;;;12.80;8.18;;;;;;;-145.69;60.06;51917.63;5129732;27;20193;-82
2023/09/08 03:40:54;;;;;;;11.88;8.00;;;;;;;-145.69;59.41;51893.88;5130156;28;20197;-82
2023/09/08 03:43:20;;;;;;;12.57;8.20;;;;;;;-145.69;59.37;51923.56;5129838;27;20201;-83
2023/09/08 03:45:48;;;;;;;10.75;7.93;;;;;;;-145.69;59.94;51917.63;5129666;27;20586;-81
2023/09/08 03:48:20;;;;;;;13.10;8.60;;;;;;;-145.69;60.27;51913.69;5115928;28;20254;-82
2023/09/08 03:50:50;;;;;;;12.60;7.20;;;;;;;-145.69;59.49;51933.47;5130037;27;20567;-83
2023/09/08 03:53:16;;;;;;;13.63;8.10;;;;;;;-145.69;59.68;51921.59;5130104;27;20283;-83
2023/09/08 03:55:44;;;;;;;10.50;8.30;;;;;;;-145.69;60.11;51911.69;5111167;28;20193;-83
2023/09/08 03:58:11;;;;;;;18.73;8.43;;;;;;;-145.69;60.19;51907.72;5115501;28;20280;-82
2023/09/08 04:00:37;;;;;;;13.82;8.00;;;;;;;-145.69;60.56;51921.59;5116424;28;20206;-82
2023/09/08 04:03:05;;;;;;;15.77;9.18;;;;;;;-145.69;60.06;51899.81;5116000;28;20309;-82
2023/09/08 04:05:31;;;;;;;15.35;8.15;;;;;;;-145.69;59.87;51913.69;5115603;28;20711;-84
2023/09/08 04:07:58;;;;;;;12.18;8.20;;;;;;;-145.69;60.20;51945.34;5115932;28;20201;-82
2023/09/08 04:10:24;;;;;;;12.52;7.95;;;;;;;-145.69;60.59;51927.53;5115845;28;20189;-83
2023/09/08 04:12:52;;;;;;;13.95;8.60;;;;;;;-145.69;60.41;51949.31;5115985;28;20197;-83
2023/09/08 04:15:19;;;;;;;13.65;8.85;;;;;;;-145.69;61.01;51921.59;5115602;28;20571;-82
2023/09/08 04:17:49;;;;;;;16.10;8.30;;;;;;;-145.69;60.47;51911.69;5115731;28;20198;-83
2023/09/08 04:20:16;;;;;;;14.35;8.40;;;;;;;-145.69;60.64;51897.84;5115839;28;20204;-82
2023/09/08 04:22:42;;;;;;;12.30;8.70;;;;;;;-145.69;60.39;51953.28;5097586;28;20201;-82
2023/09/08 04:25:10;;;;;;;11.73;8.02;;;;;;;-145.69;60.63;51895.84;5114855;28;20228;-83
2023/09/08 04:27:37;;;;;;;15.38;8.82;;;;;;;-145.69;60.49;51925.56;5115041;28;20251;-82
2023/09/08 04:30:07;;;;;;;15.18;8.88;;;;;;;-145.69;60.80;51911.69;5115504;28;20247;-83
2023/09/08 04:32:34;;;;;;;12.15;8.50;;;;;;;-145.69;60.76;51939.41;5114522;28;20790;-82
2023/09/08 04:35:00;;;;;;;15.98;9.07;;;;;;;-145.69;61.04;51909.72;5097405;28;20189;-83
2023/09/08 04:37:27;;;;;;;13.05;8.95;;;;;;;-145.69;61.24;51919.63;5115420;28;20552;-83
2023/09/08 04:39:56;;;;;;;13.40;9.07;;;;;;;-145.69;61.45;51921.59;5114683;28;20196;-81
2023/09/08 04:42:23;;;;;;;13.55;8.60;;;;;;;-145.69;61.41;51925.56;5115312;28;20656;-83
2023/09/08 04:44:50;;;;;;;14.37;9.23;;;;;;;-145.69;61.14;51945.34;5114972;28;20230;-82
2023/09/08 04:47:19;;;;;;;14.20;8.80;;;;;;;-145.69;61.71;51895.84;5115247;28;20193;-82
2023/09/08 04:49:46;;;;;;;13.93;9.23;;;;;;;-145.69;61.34;51963.19;5115223;28;20204;-83
2023/09/08 04:52:13;;;;;;;14.45;9.32;;;;;;;-145.69;61.48;51917.63;5096642;28;20205;-82
2023/09/08 04:54:43;;;;;;;13.50;9.15;;;;;;;-145.69;60.98;51933.47;5114967;28;20250;-82
2023/09/08 04:57:09;;;;;;;16.48;10.18;;;;;;;-145.69;61.54;51923.56;5114793;28;20206;-82
2023/09/08 04:59:38;;;;;;;13.18;9.38;;;;;;;-145.69;60.84;51921.59;5115167;28;20205;-83
2023/09/08 05:02:05;;;;;;;17.30;9.30;;;;;;;-145.69;61.24;51937.44;5114629;28;20190;-82
2023/09/08 05:04:33;;;;;;;16.25;9.93;;;;;;;-145.69;61.08;51889.91;5114884;28;20666;-82
2023/09/08 05:06:59;;;;;;;13.70;8.68;;;;;;;-145.69;61.50;51937.44;5114871;28;20682;-82
2023/09/08 05:09:26;;;;;;;16.50;10.15;;;;;;;-145.69;61.34;51949.31;5112114;28;20201;-82
2023/09/08 05:11:52;;;;;;;18.77;10.35;;;;;;;-145.69;61.71;51925.56;5114169;28;20201;-83
2023/09/08 05:14:19;;;;;;;15.65;9.77;;;;;;;-145.69;62.04;51941.41;5114444;28;20548;-82
2023/09/08 05:16:46;;;;;;;13.82;10.15;;;;;;;-145.69;61.58;51931.50;5096519;28;20659;-82
2023/09/08 05:19:13;;;;;;;13.63;9.40;;;;;;;-145.69;61.45;51905.75;5114275;28;20210;-83
2023/09/08 05:21:43;;;;;;;18.58;10.55;;;;;;;-145.69;61.88;51927.53;5114495;28;20201;-83
2023/09/08 05:24:10;;;;;;;14.98;10.73;;;;;;;-145.69;61.71;51929.50;5114631;28;20201;-83
2023/09/08 05:26:38;;;;;;;14.88;9.73;;;;;;;-145.69;61.57;51895.84;5114394;28;20213;-83
2023/09/08 05:29:05;;;;;;;15.35;10.20;;;;;;;-145.69;61.31;51939.41;5113988;28;20661;-83
2023/09/08 05:31:31;;;;;;;15.38;9.80;;;;;;;-145.69;61.42;51923.56;5113868;28;20205;-83
2023/09/08 05:33:58;;;;;;;16.60;12.30;;;;;;;-145.69;63.43;51917.63;5113254;28;20431;-84
2023/09/08 05:36:24;;;;;;;15.98;10.73;;;;;;;-145.69;62.16;51889.91;5114572;28;20250;-84
2023/09/08 05:38:52;;;;;;;14.70;10.38;;;;;;;-145.69;61.45;51889.91;5114280;28;20552;-84
2023/09/08 05:41:21;;;;;;;16.55;10.70;;;;;;;-145.69;61.14;51909.72;5114228;28;20246;-84
2023/09/08 05:43:48;;;;;;;14.30;9.43;;;;;;;-145.69;61.21;51913.69;5114152;28;20198;-84
2023/09/08 05:46:14;;;;;;;13.75;9.10;;;;;;;-145.69;60.93;51899.81;5114163;28;20718;-85
2023/09/08 05:48:41;;;;;;;11.52;8.32;;;;;;;-145.69;61.39;51907.72;5113924;28;20212;-83
2023/09/08 05:51:08;;;;;;;15.85;9.50;;;;;;;-145.69;61.17;51921.59;5114157;28;20568;-83
2023/09/08 05:53:40;;;;;;;15.23;9.57;;;;;;;-145.69;61.48;51941.41;5113910;28;20204;-84
2023/09/08 05:56:08;;;;;;;16.58;10.68;;;;;;;-145.69;61.94;51925.56;5114398;28;20216;-84
2023/09/08 05:58:35;;;;;;;20.10;11.60;;;;;;;-145.69;62.37;51939.41;5114031;28;20197;-83
2023/09/08 06:01:02;;;;;;;17.55;11.98;;;;;;;-145.69;62.64;51917.63;5114082;28;20205;-83
2023/09/08 06:03:28;;;;;;;17.25;11.63;;;;;;;-145.69;62.09;51911.69;5113047;28;20200;-83
2023/09/08 06:05:55;;;;;;;16.85;10.60;;;;;;;-145.69;62.01;51909.72;5113204;28;20695;-84
2023/09/08 06:08:21;;;;;;;17.27;11.43;;;;;;;-145.69;62.04;51915.66;5113483;28;20205;-83
2023/09/08 06:10:48;;;;;;;16.40;10.10;;;;;;;-145.69;61.27;51899.81;5113534;28;20190;-83
2023/09/08 06:13:16;;;;;;;16.38;10.82;;;;;;;-145.69;61.92;51923.56;5113505;28;20189;-84
2023/09/08 06:15:42;;;;;;;15.07;10.15;;;;;;;-145.69;61.48;51909.72;5113436;28;20201;-83
2023/09/08 06:18:09;;;;;;;13.93;9.63;;;;;;;-145.69;61.56;51917.63;5111877;28;20197;-84
2023/09/08 06:20:35;;;;;;;14.68;9.68;;;;;;;-145.69;61.48;51927.53;5074762;28;20194;-83
2023/09/08 06:23:02;;;;;;;12.77;9.50;;;;;;;-145.69;61.34;51903.78;5093258;28;20194;-83
2023/09/08 06:25:29;;;;;;;13.77;9.10;;;;;;;-145.69;62.37;51880.00;5092865;28;20581;-83
2023/09/08 06:27:55;;;;;;;14.82;9.57;;;;;;;-145.69;62.26;51882.00;5104292;28;20193;-82
2023/09/08 06:30:24;;;;;;;14.35;9.90;;;;;;;-145.69;62.18;51915.66;5112743;28;20199;-82
2023/09/08 06:32:50;;;;;;;12.55;9.52;;;;;;;-145.69;62.53;51880.00;5095144;28;20208;-83
2023/09/08 06:35:17;;;;;;;13.90;9.27;;;;;;;-145.69;62.42;51878.03;5113098;28;20200;-83
2023/09/08 06:37:43;;;;;;;15.63;9.68;;;;;;;-145.69;62.26;51897.84;5113200;28;20671;-82
2023/09/08 06:40:10;;;;;;;15.88;9.93;;;;;;;-145.69;61.76;51889.91;5112675;28;20196;-83
2023/09/08 06:42:36;;;;;;;14.85;9.90;;;;;;;-145.69;62.05;51893.88;5113171;28;20208;-82
2023/09/08 06:45:03;;;;;;;15.90;9.68;;;;;;;-145.69;61.86;51889.91;5112551;28;20225;-83
2023/09/08 06:47:31;;;;;;;15.52;9.93;;;;;;;-145.69;61.62;51874.06;5113190;28;20223;-83
2023/09/08 06:49:58;;;;;;;16.33;10.35;;;;;;;-145.69;61.72;51897.84;5112879;28;20208;-83
2023/09/08 06:52:24;;;;;;;14.82;10.00;;;;;;;-145.69;61.82;51870.13;5113340;28;20205;-83
2023/09/08 06:54:51;;;;;;;14.55;9.27;;;;;;;-145.69;61.92;51878.03;5113080;28;20212;-83
2023/09/08 06:57:19;;;;;;;13.70;9.30;;;;;;;-145.69;62.08;51864.16;5112863;28;20213;-83
2023/09/08 06:59:46;;;;;;;13.23;10.52;;;;;;;-145.69;62.93;51866.16;5112032;28;20602;-83
2023/09/08 07:02:12;;;;;;;12.93;9.98;;;;;;;-145.69;62.34;51864.16;5112266;28;20194;-82
2023/09/08 07:04:40;;;;;;;13.38;10.23;;;;;;;-145.69;61.84;51874.06;5112879;28;20212;-81
2023/09/08 07:07:07;;;;;;;15.98;10.23;;;;;;;-145.69;61.73;51874.06;5112556;28;20224;-82
2023/09/08 07:09:34;;;;;;;15.98;9.15;;;;;;;-145.69;62.27;51874.06;5112458;28;20197;-82
2023/09/08 07:12:01;;;;;;;13.27;9.52;;;;;;;-145.69;62.20;51856.25;5112993;28;20201;-81
2023/09/08 07:14:27;;;;;;;14.43;9.38;;;;;;;-145.69;61.79;51862.19;5113084;28;20200;-81
2023/09/08 07:16:54;;;;;;;12.95;9.45;;;;;;;-145.69;61.48;51864.16;5112673;28;20204;-82
2023/09/08 07:19:20;;;;;;;13.98;9.88;;;;;;;-145.69;61.67;51866.16;5094235;28;20222;-82
2023/09/08 07:21:48;;;;;;;17.65;10.27;;;;;;;-145.69;61.77;51846.34;5112158;28;20193;-82
2023/09/08 07:24:14;;;;;;;12.05;9.10;;;;;;;-145.69;62.04;51850.31;5110723;28;20672;-82
2023/09/08 07:26:41;;;;;;;10.93;8.80;;;;;;;-145.69;61.92;51848.34;5112442;28;20221;-82
2023/09/08 07:29:07;;;;;;;13.27;9.18;;;;;;;-145.69;61.69;51836.44;5112391;28;20293;-82
2023/09/08 07:31:35;;;;;;;13.95;9.10;;;;;;;-145.69;61.94;51852.28;5113590;28;20659;-82
2023/09/08 07:34:01;;;;;;;12.23;8.38;;;;;;;-145.69;61.26;51840.41;5116767;28;20201;-82
2023/09/08 07:36:30;;;;;;;12.60;8.65;;;;;;;-145.69;60.89;51830.50;5116849;28;20292;-82
2023/09/08 07:38:58;;;;;;;14.18;9.10;;;;;;;-145.69;60.98;51826.56;5116229;28;20194;-82
2023/09/08 07:41:24;;;;;;;12.15;8.88;;;;;;;-145.69;61.01;51814.66;5115886;28;21070;-82
2023/09/08 07:43:51;;;;;;;12.65;8.85;;;;;;;-145.69;60.43;51848.34;5116383;28;20212;-82
2023/09/08 07:46:18;;;;;;;12.88;8.55;;;;;;;-145.69;60.54;51838.44;5116163;28;20237;-82
2023/09/08 07:48:44;;;;;;;11.75;7.50;;;;;;;-145.69;60.17;51800.81;5098140;28;20198;-82
2023/09/08 07:51:11;;;;;;;11.70;7.85;;;;;;;-145.69;59.21;51846.34;5116152;28;20656;-82
2023/09/08 07:53:37;;;;;;;13.05;8.05;;;;;;;-145.69;59.11;51800.81;5116126;28;20224;-82
2023/09/08 07:56:16;;;;;;;10.30;7.50;;;;;;;-145.69;57.58;51808.72;5115754;28;20278;-82
2023/09/08 07:58:43;;;;;;;11.40;6.93;;;;;;;-145.69;58.19;51834.47;5115173;28;20189;-83
2023/09/08 08:01:10;;;;;;;11.77;7.18;;;;;;;-145.69;57.46;51840.41;5101555;28;20190;-81
2023/09/08 08:03:37;;;;;;;11.45;7.40;;;;;;;-145.69;56.17;51790.91;5115263;28;20202;-81
2023/09/08 08:06:04;;;;;;;11.43;6.68;;;;;;;-145.69;55.44;51810.72;5115161;28;20197;-82
2023/09/08 08:08:31;;;;;;;11.88;6.60;;;;;;;-145.69;53.00;51824.56;5115789;28;20201;-81
2023/09/08 08:10:57;;;;;;;9.85;6.88;;;;;;;-145.69;53.53;51773.09;5115823;28;20327;-80
2023/09/08 08:13:25;;;;;;;8.68;6.15;;;;;;;-145.69;52.76;51786.94;5115811;28;20204;-79
2023/09/08 08:15:52;;;;;;;9.05;5.95;;;;;;;-145.69;52.02;51806.75;5115848;28;20205;-80
2023/09/08 08:18:18;;;;;;;8.65;6.30;;;;;;;-145.69;51.86;51826.56;5116018;28;20276;-79
2023/09/08 08:20:45;;;;;;;8.25;6.30;;;;;;;-145.69;52.64;51798.81;5115967;28;20247;-79
2023/09/08 08:23:11;;;;;;;10.25;6.05;;;;;;;-145.69;52.19;51792.88;5115756;28;20205;-80
2023/09/08 08:25:38;;;;;;;10.05;6.43;;;;;;;-145.69;53.00;51784.97;5115036;28;20443;-80
2023/09/08 08:28:05;;;;;;;8.63;6.63;;;;;;;-145.69;52.26;51784.97;5115567;28;20236;-81
2023/09/08 08:30:33;;;;;;;9.15;5.80;;;;;;;-145.69;52.04;51767.16;5115495;28;20205;-79
2023/09/08 08:32:59;;;;;;;10.88;5.85;;;;;;;-145.69;52.09;51783.00;5115038;28;20194;-79
2023/09/08 08:35:26;;;;;;;7.28;5.75;;;;;;;-145.69;51.50;51786.94;5115599;28;20205;-79
2023/09/08 08:37:52;;;;;;;7.25;5.93;;;;;;;-145.69;50.97;51786.94;5114083;28;20541;-79
2023/09/08 08:40:19;;;;;;;9.80;5.85;;;;;;;-145.69;49.58;51757.25;5114885;28;20201;-79
2023/09/08 08:42:45;;;;;;;8.40;6.22;;;;;;;-145.69;49.93;51777.03;5111636;27;20193;-80
2023/09/08 08:45:12;;;;;;;8.30;6.30;;;;;;;-145.69;49.56;51759.22;5097675;28;20227;-80
2023/09/08 08:47:41;;;;;;;8.18;5.40;;;;;;;-145.69;49.08;51773.09;5114546;28;20221;-80
2023/09/08 08:50:11;;;;;;;8.93;5.80;;;;;;;-145.69;48.60;51802.78;5113987;28;20189;-81
2023/09/08 08:52:38;;;;;;;11.77;6.15;;;;;;;-145.69;48.22;51794.88;5114586;28;20201;-82
2023/09/08 08:55:06;;;;;;;7.88;5.85;;;;;;;-145.69;47.93;51765.16;5115210;28;20202;-80
2023/09/08 08:57:33;;;;;;;9.13;5.53;;;;;;;-145.69;48.49;51771.09;5114447;28;20555;-82
2023/09/08 09:00:00;;;;;;;7.65;5.35;;;;;;;-145.69;48.21;51759.22;5114495;28;20201;-80
2023/09/08 09:02:29;;;;;;;7.10;5.32;;;;;;;-145.69;48.03;51755.25;5113585;28;20189;-82
2023/09/08 09:04:57;;;;;;;13.35;6.13;;;;;;;-145.69;46.82;51755.25;5113927;28;20190;-81
2023/09/08 09:07:25;;;;;;;8.18;5.85;;;;;;;-145.69;46.70;51777.03;5114309;28;20225;-80
2023/09/08 09:09:52;;;;;;;9.70;5.72;;;;;;;-145.69;47.26;51745.38;5114594;28;20208;-81
2023/09/08 09:12:18;;;;;;;10.52;5.53;;;;;;;-145.69;47.60;51757.25;5114171;28;20637;-80
2023/09/08 09:14:48;;;;;;;9.95;6.55;;;;;;;-145.69;47.46;51743.38;5114111;28;20205;-80
2023/09/08 09:17:15;;;;;;;8.40;5.70;;;;;;;-145.69;47.61;51769.13;5111695;28;20197;-81
2023/09/08 09:19:41;;;;;;;9.48;5.72;;;;;;;-145.69;46.21;51777.03;5114729;28;20205;-79
2023/09/08 09:22:09;;;;;;;10.35;5.72;;;;;;;-145.69;46.38;51735.47;5114278;28;20655;-80
2023/09/08 09:24:40;;;;;;;7.75;5.97;;;;;;;-145.69;45.49;51759.22;5114744;28;20229;-80
2023/09/08 09:27:07;;;;;;;12.15;5.63;;;;;;;-145.69;45.50;51779.03;5114100;28;20221;-80
2023/09/08 09:29:34;;;;;;;9.05;5.43;;;;;;;-145.69;45.88;51747.34;5114505;28;20194;-81
2023/09/08 09:32:04;;;;;;;9.77;5.35;;;;;;;-145.69;46.21;51751.31;5113870;28;20201;-81
2023/09/08 09:34:31;;;;;;;10.73;6.50;;;;;;;-145.69;45.81;51771.09;5113956;28;20213;-80
2023/09/08 09:36:57;;;;;;;10.68;5.70;;;;;;;-145.69;46.29;51749.31;5113676;28;20197;-80
2023/09/08 09:39:26;;;;;;;9.55;6.22;;;;;;;-145.69;46.00;51739.44;5113993;28;20223;-80
2023/09/08 09:41:55;;;;;;;9.25;5.72;;;;;;;-145.69;46.23;51747.34;5114169;28;20208;-80
2023/09/08 09:44:22;;;;;;;13.57;5.75;;;;;;;-145.69;45.71;51755.25;5113340;28;20189;-80
2023/09/08 09:46:52;;;;;;;8.63;5.95;;;;;;;-145.69;45.21;51721.59;5113502;28;20221;-81
2023/09/08 09:49:18;;;;;;;8.10;5.68;;;;;;;-145.69;44.78;51755.25;5114503;28;20193;-81
2023/09/08 09:51:47;;;;;;;9.48;6.15;;;;;;;-145.69;44.57;51759.22;5113795;28;20272;-80
2023/09/08 09:54:14;;;;;;;8.35;5.78;;;;;;;-145.69;44.47;51733.50;5113794;28;20197;-81
2023/09/08 09:56:43;;;;;;;9.13;6.50;;;;;;;-145.69;44.75;51727.53;5109633;28;20204;-82
2023/09/08 09:59:11;;;;;;;11.02;5.95;;;;;;;-145.69;44.30;51751.31;5113517;28;20212;-81
2023/09/08 10:01:38;;;;;;;8.20;5.90;;;;;;;-145.69;44.20;51731.50;5113578;28;20211;-82
2023/09/08 10:04:05;;;;;;;9.43;5.70;;;;;;;-145.69;44.17;51729.53;5113314;28;20201;-81
2023/09/08 10:06:33;;;;;;;8.25;5.82;;;;;;;-145.69;43.69;51735.47;5112895;28;20715;-81
2023/09/08 10:09:01;;;;;;;8.10;5.95;;;;;;;-145.69;43.22;51725.56;5113412;28;20652;-81
2023/09/08 10:11:29;;;;;;;8.82;5.72;;;;;;;-145.69;43.40;51707.75;5113396;28;20198;-81
2023/09/08 10:13:59;;;;;;;10.52;5.80;;;;;;;-145.69;42.71;51727.53;5113007;28;20280;-80
2023/09/08 10:16:28;;;;;;;7.90;4.95;;;;;;;-145.69;42.73;51723.59;5112654;28;20204;-81
2023/09/08 10:18:55;;;;;;;6.80;5.40;;;;;;;-145.69;43.47;51739.44;5113428;28;20227;-80
2023/09/08 10:21:27;;;;;;;8.05;5.47;;;;;;;-145.69;41.72;51723.59;5113214;28;20216;-80
2023/09/08 10:24:00;;;;;;;10.43;5.32;;;;;;;-145.69;40.98;51719.63;5113597;28;20204;-80
2023/09/08 10:26:28;;;;;;;7.72;5.45;;;;;;;-145.69;40.38;51705.75;5112338;28;20197;-83
2023/09/08 10:28:56;;;;;;;6.65;4.68;;;;;;;-145.69;40.17;51707.75;5112852;28;20679;-82
2023/09/08 10:31:27;;;;;;;8.82;5.40;;;;;;;-145.69;40.13;51703.78;5112561;28;20201;-81
2023/09/08 10:33:54;;;;;;;10.10;5.35;;;;;;;-145.69;40.42;51727.53;5112400;28;20204;-80
2023/09/08 10:36:21;;;;;;;9.27;5.18;;;;;;;-145.69;40.28;51695.88;5113114;28;20648;-83
2023/09/08 10:38:50;;;;;;;9.38;4.93;;;;;;;-145.69;40.67;51703.78;5112322;28;20194;-81
2023/09/08 10:41:33;;;;;;;8.25;4.68;;;;;;;-145.69;40.09;51699.81;5113687;28;20246;-79
2023/09/08 10:44:04;;;;;;;6.95;4.80;;;;;;;-145.69;40.24;51680.03;5112231;28;20204;-81
2023/09/08 10:46:33;;;;;;;9.05;5.15;;;;;;;-145.69;39.90;51695.88;5112846;28;20237;-81
2023/09/08 10:49:04;;;;;;;5.95;4.07;;;;;;;-145.69;40.53;51699.81;5112491;28;20228;-81
2023/09/08 10:51:31;;;;;;;7.57;4.60;;;;;;;-145.69;40.52;51691.91;5112553;28;20582;-81
2023/09/08 10:53:58;;;;;;;7.90;4.15;;;;;;;-145.69;39.63;51701.81;5112612;28;20198;-81
2023/09/08 10:56:29;;;;;;;5.63;4.43;;;;;;;-145.69;40.44;51685.97;5113173;28;20193;-82
2023/09/08 10:58:55;;;;;;;8.32;5.20;;;;;;;-145.69;39.34;51689.94;5112725;28;20193;-82
2023/09/08 11:01:26;;;;;;;9.80;4.57;;;;;;;-145.69;39.16;51715.66;5112396;28;20809;-83
2023/09/08 11:03:54;;;;;;;9.40;4.95;;;;;;;-145.69;39.75;51682.00;5112242;28;20702;-82
2023/09/08 11:06:23;;;;;;;7.28;4.47;;;;;;;-145.69;39.75;51711.72;5112890;28;20197;-83
2023/09/08 11:08:52;;;;;;;8.05;4.85;;;;;;;-145.69;40.19;51674.09;5117236;28;20225;-82
2023/09/08 11:11:19;;;;;;;5.75;4.35;;;;;;;-145.69;39.19;51707.75;5117328;28;20205;-82
2023/09/08 11:13:46;;;;;;;5.88;4.57;;;;;;;-145.69;38.40;51691.91;5117024;28;20196;-81
2023/09/08 11:16:14;;;;;;;6.22;4.35;;;;;;;-145.69;38.05;51689.94;5116820;28;20660;-81